Terminal Aerodrome Forecast
Issued by NWS

Home | Current Version | Previous Version | Text Only | Print | Product List | Glossary On
Versions: 1 2 3 4 5 6 7 8 9 10 11 12 13 14
000
FTUS41 KPBZ 121429 AAB
TAFBVI
TAF AMD
KBVI 121429Z 1214/1312 30012G22KT 6SM -SN OVC012
     FM121700 28014G27KT P6SM OVC025
     FM130100 30015G28KT 5SM -SN OVC025
     FM130800 29012G22KT P6SM BKN025=

USA.gov is the U.S. government's official web portal to all federal, state and local government web resources and services.